Terminal Aerodrome Forecast
Issued by NWS Central Illinois

Home | Current Version | Previous Version | Text Only | Print | Product List | Glossary On
Versions: 1 2 3 4 5 6 7 8 9 10 11 12 13 14 15 16 17 18 19 20 21 22 23 24 25 26 27 28 29 30 31
000
FTUS43 KILX 241100 CCA
TAFSPI
TAF COR
KSPI 241136Z 2412/2512 28018G28KT 3SM -SN BR OVC012
      TEMPO 2412/2414 1SM -SN OVC008
     FM241400 28020G32KT P6SM OVC015
     FM242100 25016G26KT P6SM OVC020
     FM250100 26011KT P6SM OVC020=

USA.gov is the U.S. government's official web portal to all federal, state and local government web resources and services.